createdAt,value
2019-06-15T00:00:09.488Z,994.71
2019-06-15T00:01:19.225Z,994.67
2019-06-15T00:02:21.954Z,994.67
2019-06-15T00:03:22.997Z,994.6
2019-06-15T00:04:23.107Z,994.57
2019-06-15T00:05:22.370Z,994.55
2019-06-15T00:06:22.425Z,994.63
2019-06-15T00:07:26.239Z,994.54
2019-06-15T00:08:25.230Z,994.57
2019-06-15T00:09:33.231Z,994.57
2019-06-15T00:10:32.684Z,994.53
2019-06-15T00:11:32.826Z,994.5
2019-06-15T00:12:33.074Z,994.41
2019-06-15T00:13:34.307Z,994.41
2019-06-15T00:14:36.419Z,994.41
2019-06-15T00:15:42.028Z,994.36
2019-06-15T00:16:46.334Z,994.35
2019-06-15T00:17:48.978Z,994.32
2019-06-15T00:18:50.073Z,994.33
2019-06-15T00:19:49.585Z,994.28
2019-06-15T00:20:56.221Z,994.29
2019-06-15T00:21:59.455Z,994.36
2019-06-15T00:22:59.476Z,994.45
2019-06-15T00:24:01.903Z,994.38
2019-06-15T00:25:05.200Z,994.48
2019-06-15T00:26:17.893Z,994.48
2019-06-15T00:27:30.336Z,994.51
2019-06-15T00:28:33.676Z,994.5
2019-06-15T00:29:35.135Z,994.5
2019-06-15T00:30:47.400Z,994.48
2019-06-15T00:31:47.598Z,994.47
2019-06-15T00:32:48.942Z,994.5
2019-06-15T00:33:51.653Z,994.57
2019-06-15T00:35:02.012Z,994.66
2019-06-15T00:36:03.624Z,994.71
2019-06-15T00:37:06.873Z,994.62
2019-06-15T00:38:08.177Z,994.72
2019-06-15T00:39:19.243Z,994.65
2019-06-15T00:40:19.452Z,994.6
2019-06-15T00:41:19.322Z,994.62
2019-06-15T00:42:19.659Z,994.57
2019-06-15T00:43:19.049Z,994.68
2019-06-15T00:44:20.594Z,994.65
2019-06-15T00:45:28.000Z,994.72
2019-06-15T00:46:33.434Z,994.68
2019-06-15T00:47:33.105Z,994.7
2019-06-15T00:48:34.419Z,994.68
2019-06-15T00:49:33.670Z,994.57
2019-06-15T00:50:33.468Z,994.48
2019-06-15T00:51:32.905Z,994.5
2019-06-15T00:52:35.092Z,994.38
2019-06-15T00:53:37.666Z,994.41
2019-06-15T00:54:34.416Z,994.31
2019-06-15T00:55:37.373Z,994.28
2019-06-15T00:56:40.048Z,994.38
2019-06-15T00:57:41.210Z,994.35
2019-06-15T00:58:52.483Z,994.35
2019-06-15T00:59:50.419Z,994.35
2019-06-15T01:00:59.713Z,994.31
2019-06-15T01:02:07.900Z,994.28
2019-06-15T01:03:07.584Z,994.25
2019-06-15T01:04:08.558Z,994.18
2019-06-15T01:05:07.967Z,994.18
2019-06-15T01:06:10.601Z,994.07
2019-06-15T01:07:12.228Z,994.06
2019-06-15T01:08:15.288Z,994.03
2019-06-15T01:09:15.758Z,994.03
2019-06-15T01:10:18.231Z,993.96
2019-06-15T01:11:19.368Z,993.88
2019-06-15T01:12:18.328Z,993.93
2019-06-15T01:13:18.133Z,993.82
2019-06-15T01:14:18.203Z,993.84
2019-06-15T01:15:20.469Z,993.82
2019-06-15T01:16:19.404Z,993.85
2019-06-15T01:17:28.381Z,993.71
2019-06-15T01:18:30.094Z,993.71
2019-06-15T01:19:30.522Z,993.66
2019-06-15T01:20:32.266Z,993.65
2019-06-15T01:21:32.084Z,993.58
2019-06-15T01:22:32.202Z,993.58
2019-06-15T01:23:31.056Z,993.49
2019-06-15T01:24:31.086Z,993.44
2019-06-15T01:25:36.276Z,993.35
2019-06-15T01:26:33.030Z,993.34
2019-06-15T01:27:33.428Z,993.3
2019-06-15T01:28:39.168Z,993.3
2019-06-15T01:29:38.002Z,993.31
2019-06-15T01:30:40.706Z,993.23
2019-06-15T01:31:40.753Z,993.27
2019-06-15T01:32:40.407Z,993.23
2019-06-15T01:33:38.933Z,993.25
2019-06-15T01:34:38.681Z,993.23
2019-06-15T01:35:40.614Z,993.19
2019-06-15T01:36:40.665Z,993.04
2019-06-15T01:37:41.671Z,993.12
2019-06-15T01:38:42.572Z,993.06
2019-06-15T01:39:41.336Z,993.04
2019-06-15T01:40:43.091Z,992.97
2019-06-15T01:41:42.133Z,992.94
2019-06-15T01:42:42.184Z,992.94
2019-06-15T01:43:42.494Z,993.04
2019-06-15T01:44:52.548Z,992.85
2019-06-15T01:45:51.587Z,992.85
2019-06-15T01:46:52.233Z,992.94
2019-06-15T01:47:51.690Z,992.89
2019-06-15T01:48:53.613Z,992.92
2019-06-15T01:50:10.078Z,992.92
2019-06-15T01:51:11.827Z,993.09
2019-06-15T01:52:13.796Z,993.04
2019-06-15T01:53:13.237Z,993.22
2019-06-15T01:54:13.440Z,993.19
2019-06-15T01:55:21.238Z,993.23
2019-06-15T01:56:17.979Z,993.25
2019-06-15T01:57:18.356Z,993.22
2019-06-15T01:58:18.826Z,993.22
2019-06-15T01:59:22.723Z,993.13
2019-06-15T02:00:23.681Z,993.12
2019-06-15T02:01:23.183Z,993.18
2019-06-15T02:02:23.438Z,993.15
2019-06-15T02:03:24.876Z,993.07
2019-06-15T02:04:27.668Z,993.12
2019-06-15T02:05:25.374Z,993.09
2019-06-15T02:06:24.552Z,992.94
2019-06-15T02:07:23.995Z,992.93
2019-06-15T02:08:24.894Z,992.91
2019-06-15T02:09:25.252Z,993
2019-06-15T02:10:25.925Z,992.93
2019-06-15T02:11:24.859Z,992.91
2019-06-15T02:12:23.885Z,992.93
2019-06-15T02:12:36.923Z,992.97
2019-06-15T02:13:35.859Z,992.93
2019-06-15T02:14:38.991Z,992.95
2019-06-15T02:15:44.130Z,992.97
2019-06-15T02:16:45.915Z,992.97
2019-06-15T02:17:45.792Z,992.94
2019-06-15T02:18:46.122Z,993.06
2019-06-15T02:19:49.569Z,992.98
2019-06-15T02:20:50.098Z,992.96
2019-06-15T02:21:53.455Z,992.97
2019-06-15T02:22:55.931Z,992.97
2019-06-15T02:24:00.122Z,993.09
2019-06-15T02:24:59.362Z,993.15
2019-06-15T02:25:59.027Z,993.07
2019-06-15T02:26:58.200Z,993.13
2019-06-15T02:27:57.691Z,993
2019-06-15T02:28:57.839Z,993.1
2019-06-15T02:29:58.272Z,993.09
2019-06-15T02:30:58.230Z,993.16
2019-06-15T02:31:59.741Z,993.13
2019-06-15T02:33:03.743Z,993.09
2019-06-15T02:34:04.185Z,993.16
2019-06-15T02:35:05.104Z,993.06
2019-06-15T02:36:07.991Z,993.19
2019-06-15T02:37:11.403Z,993.15
2019-06-15T02:38:10.692Z,993.13
2019-06-15T02:39:09.716Z,993.12
2019-06-15T02:40:12.953Z,993.13
2019-06-15T02:41:12.638Z,993.11
2019-06-15T02:42:19.701Z,993
2019-06-15T02:43:19.820Z,992.99
2019-06-15T02:44:21.029Z,993.11
2019-06-15T02:45:19.852Z,993.05
2019-06-15T02:46:21.177Z,993.08
2019-06-15T02:47:23.194Z,993.05
2019-06-15T02:48:23.919Z,992.99
2019-06-15T02:49:24.573Z,993
2019-06-15T02:50:25.660Z,992.97
2019-06-15T02:51:25.890Z,992.99
2019-06-15T02:52:35.670Z,993.12
2019-06-15T02:53:33.492Z,993
2019-06-15T02:54:42.094Z,993.15
2019-06-15T02:55:50.195Z,993.06
2019-06-15T02:55:50.629Z,993.06
2019-06-15T02:55:51.185Z,993.06
2019-06-15T02:56:40.645Z,993.05
2019-06-15T02:57:42.399Z,993.06
2019-06-15T02:58:43.154Z,993.18
2019-06-15T02:59:42.306Z,993.18
2019-06-15T03:00:44.190Z,993.13
2019-06-15T03:01:44.022Z,992.94
2019-06-15T03:02:46.238Z,993.06
2019-06-15T03:03:49.588Z,993
2019-06-15T03:04:50.078Z,993.09
2019-06-15T03:05:49.506Z,993.14
2019-06-15T03:06:58.096Z,993.18
2019-06-15T03:07:57.126Z,993.12
2019-06-15T03:09:04.282Z,993.09
2019-06-15T03:10:04.289Z,993.09
2019-06-15T03:11:04.196Z,993.08
2019-06-15T03:12:07.848Z,993
2019-06-15T03:13:06.339Z,992.93
2019-06-15T03:14:05.425Z,992.97
2019-06-15T03:15:11.067Z,992.96
2019-06-15T03:16:25.775Z,992.97
2019-06-15T03:17:26.780Z,992.85
2019-06-15T03:18:27.000Z,992.88
2019-06-15T03:19:36.465Z,992.84
2019-06-15T03:20:40.259Z,992.82
2019-06-15T03:21:41.977Z,992.74
2019-06-15T03:22:41.814Z,992.71
2019-06-15T03:23:40.730Z,992.72
2019-06-15T03:24:40.413Z,992.53
2019-06-15T03:25:43.870Z,992.51
2019-06-15T03:26:44.162Z,992.57
2019-06-15T03:27:44.039Z,992.53
2019-06-15T03:28:47.445Z,992.6
2019-06-15T03:29:47.195Z,992.57
2019-06-15T03:30:48.890Z,992.52
2019-06-15T03:31:48.250Z,992.52
2019-06-15T03:32:48.867Z,992.46
2019-06-15T03:33:55.539Z,992.54
2019-06-15T03:35:02.770Z,992.65
2019-06-15T03:36:04.341Z,992.63
2019-06-15T03:37:07.179Z,992.72
2019-06-15T03:38:06.321Z,992.66
2019-06-15T03:39:10.251Z,992.71
2019-06-15T03:40:06.398Z,992.63
2019-06-15T03:41:06.607Z,992.72
2019-06-15T03:42:06.389Z,992.77
2019-06-15T03:43:05.218Z,992.71
2019-06-15T03:44:05.503Z,992.74
2019-06-15T03:45:10.900Z,992.78
2019-06-15T03:46:09.566Z,992.74
2019-06-15T03:47:08.182Z,992.81
2019-06-15T03:48:09.489Z,992.81
2019-06-15T03:49:11.779Z,992.75
2019-06-15T03:50:23.325Z,992.82
2019-06-15T03:51:22.135Z,992.77
2019-06-15T03:52:27.344Z,992.81
2019-06-15T03:53:31.562Z,992.77
2019-06-15T03:54:31.299Z,992.83
2019-06-15T03:55:31.102Z,992.74
2019-06-15T03:56:35.088Z,992.84
2019-06-15T03:57:37.669Z,992.77
2019-06-15T03:58:34.770Z,992.75
2019-06-15T03:59:35.834Z,992.75
2019-06-15T04:00:49.126Z,992.81
2019-06-15T04:01:50.608Z,992.78
2019-06-15T04:02:49.111Z,992.81
2019-06-15T04:03:47.896Z,992.72
2019-06-15T04:04:47.165Z,992.81
2019-06-15T04:05:56.172Z,992.87
2019-06-15T04:06:56.766Z,992.92
2019-06-15T04:07:58.286Z,992.92
2019-06-15T04:08:59.650Z,992.96
2019-06-15T04:10:11.747Z,993.14
2019-06-15T04:11:13.275Z,993.21
2019-06-15T04:12:12.528Z,993.21
2019-06-15T04:13:11.453Z,993.41
2019-06-15T04:14:14.759Z,993.45
2019-06-15T04:15:13.283Z,993.53
2019-06-15T04:16:12.417Z,993.64
2019-06-15T04:17:12.676Z,993.72
2019-06-15T04:18:13.430Z,993.81
2019-06-15T04:19:13.697Z,993.81
2019-06-15T04:20:13.262Z,993.84
2019-06-15T04:21:13.185Z,993.94
2019-06-15T04:22:12.002Z,993.85
2019-06-15T04:23:11.303Z,993.88
2019-06-15T04:24:15.118Z,993.78
2019-06-15T04:25:14.830Z,993.67
2019-06-15T04:26:15.093Z,993.59
2019-06-15T04:27:13.775Z,993.53
2019-06-15T04:28:12.746Z,993.45
2019-06-15T04:29:12.238Z,993.47
2019-06-15T04:30:11.477Z,993.37
2019-06-15T04:31:11.492Z,993.42
2019-06-15T04:32:11.417Z,993.42
2019-06-15T04:33:21.435Z,993.51
2019-06-15T04:34:27.480Z,993.61
2019-06-15T04:35:26.798Z,993.56
2019-06-15T04:36:30.690Z,993.56
2019-06-15T04:37:34.641Z,993.51
2019-06-15T04:38:34.903Z,993.47
2019-06-15T04:39:43.827Z,993.48
2019-06-15T04:40:44.472Z,993.41
2019-06-15T04:41:45.420Z,993.41
2019-06-15T04:42:53.684Z,993.51
2019-06-15T04:44:02.942Z,993.42
2019-06-15T04:44:58.738Z,993.47
2019-06-15T04:45:59.866Z,993.48
2019-06-15T04:47:01.748Z,993.59
2019-06-15T04:48:13.851Z,993.56
2019-06-15T04:49:12.428Z,993.54
2019-06-15T04:50:17.091Z,993.62
2019-06-15T04:51:19.009Z,993.66
2019-06-15T04:52:29.743Z,993.68
2019-06-15T04:53:53.978Z,993.56
2019-06-15T04:55:00.232Z,993.54
2019-06-15T04:55:56.244Z,993.51
2019-06-15T04:56:56.019Z,993.48
2019-06-15T04:57:56.359Z,993.45
2019-06-15T04:58:55.627Z,993.5
2019-06-15T04:59:58.136Z,993.5
2019-06-15T05:00:59.862Z,993.54
2019-06-15T05:02:06.682Z,993.45
2019-06-15T05:03:06.480Z,993.51
2019-06-15T05:04:10.029Z,993.45
2019-06-15T05:05:12.147Z,993.47
2019-06-15T05:06:10.140Z,993.44
2019-06-15T05:07:12.103Z,993.41
2019-06-15T05:08:11.450Z,993.4
2019-06-15T05:09:15.718Z,993.44
2019-06-15T05:10:17.454Z,993.51
2019-06-15T05:11:18.896Z,993.51
2019-06-15T05:12:17.675Z,993.53
2019-06-15T05:13:17.414Z,993.6
2019-06-15T05:14:17.779Z,993.65
2019-06-15T05:15:22.965Z,993.76
2019-06-15T05:16:21.482Z,993.69
2019-06-15T05:17:21.457Z,993.69
2019-06-15T05:18:23.194Z,993.62
2019-06-15T05:19:24.793Z,993.63
2019-06-15T05:20:25.406Z,993.59
2019-06-15T05:21:28.236Z,993.5
2019-06-15T05:22:28.586Z,993.53
2019-06-15T05:23:32.889Z,993.43
2019-06-15T05:24:39.651Z,993.46
2019-06-15T05:25:41.340Z,993.43
2019-06-15T05:26:50.004Z,993.5
2019-06-15T05:27:48.856Z,993.47
2019-06-15T05:28:49.917Z,993.48
2019-06-15T05:29:50.540Z,993.51
2019-06-15T05:30:50.260Z,993.54
2019-06-15T05:31:56.379Z,993.5
2019-06-15T05:32:53.170Z,993.53
2019-06-15T05:33:56.485Z,993.56
2019-06-15T05:34:54.958Z,993.57
2019-06-15T05:35:53.659Z,993.54
2019-06-15T05:37:06.958Z,993.57
2019-06-15T05:38:08.677Z,993.5
2019-06-15T05:39:07.582Z,993.48
2019-06-15T05:40:09.561Z,993.57
2019-06-15T05:41:10.747Z,993.65
2019-06-15T05:42:09.939Z,993.63
2019-06-15T05:43:12.732Z,993.56
2019-06-15T05:44:10.172Z,993.66
2019-06-15T05:45:15.697Z,993.65
2019-06-15T05:46:15.540Z,993.69
2019-06-15T05:47:15.276Z,993.59
2019-06-15T05:48:15.226Z,993.78
2019-06-15T05:49:22.182Z,993.68
2019-06-15T05:50:28.398Z,993.81
2019-06-15T05:51:28.366Z,993.73
2019-06-15T05:52:27.178Z,993.69
2019-06-15T05:53:27.493Z,993.82
2019-06-15T05:54:26.044Z,993.84
2019-06-15T05:55:25.519Z,993.87
2019-06-15T05:56:24.855Z,993.87
2019-06-15T05:57:33.131Z,993.91
2019-06-15T05:58:35.357Z,993.91
2019-06-15T05:59:37.084Z,993.97
2019-06-15T06:00:35.583Z,993.84
2019-06-15T06:01:34.535Z,993.91
2019-06-15T06:02:33.667Z,994
2019-06-15T06:03:33.444Z,993.96
2019-06-15T06:04:33.445Z,993.98
2019-06-15T06:05:33.076Z,994.1
2019-06-15T06:06:35.314Z,994.07
2019-06-15T06:07:34.114Z,994.1
2019-06-15T06:08:33.804Z,994.1
2019-06-15T06:09:34.665Z,994
2019-06-15T06:10:48.743Z,994.03
2019-06-15T06:11:49.479Z,994.04
2019-06-15T06:12:48.017Z,994.1
2019-06-15T06:13:46.425Z,993.97
2019-06-15T06:14:47.993Z,994.04
2019-06-15T06:15:48.334Z,994.1
2019-06-15T06:16:47.723Z,994.13
2019-06-15T06:17:46.838Z,994.12
2019-06-15T06:18:49.877Z,994.07
2019-06-15T06:19:48.905Z,994.21
2019-06-15T06:20:49.267Z,994.15
2019-06-15T06:21:52.572Z,994.23
2019-06-15T06:22:52.865Z,994.16
2019-06-15T06:23:54.470Z,994.15
2019-06-15T06:24:53.141Z,994.16
2019-06-15T06:25:56.822Z,994.06
2019-06-15T06:26:59.202Z,994.07
2019-06-15T06:27:56.097Z,994.15
2019-06-15T06:28:57.448Z,994.13
2019-06-15T06:29:58.399Z,994.22
2019-06-15T06:30:57.369Z,994.15
2019-06-15T06:32:05.343Z,994.15
2019-06-15T06:33:04.965Z,994.06
2019-06-15T06:34:03.752Z,994.09
2019-06-15T06:35:03.723Z,994.16
2019-06-15T06:36:09.381Z,994.1
2019-06-15T06:37:08.290Z,994.12
2019-06-15T06:38:09.191Z,994.1
2019-06-15T06:39:19.411Z,994.13
2019-06-15T06:40:18.947Z,994.16
2019-06-15T06:41:28.360Z,994.21
2019-06-15T06:42:28.063Z,994.24
2019-06-15T06:43:31.734Z,994.29
2019-06-15T06:44:33.488Z,994.16
2019-06-15T06:45:40.675Z,994.25
2019-06-15T06:46:43.477Z,994.24
2019-06-15T06:47:56.815Z,994.18
2019-06-15T06:48:53.753Z,994.21
2019-06-15T06:49:53.635Z,994.19
2019-06-15T06:51:03.043Z,994.25
2019-06-15T06:52:01.726Z,994.22
2019-06-15T06:53:05.810Z,994.28
2019-06-15T06:54:11.040Z,994.27
2019-06-15T06:55:09.787Z,994.3
2019-06-15T06:56:13.362Z,994.3
2019-06-15T06:57:13.514Z,994.4
2019-06-15T06:58:13.030Z,994.32
2019-06-15T06:59:16.604Z,994.44
2019-06-15T07:00:21.822Z,994.43
2019-06-15T07:01:21.323Z,994.46
2019-06-15T07:02:21.049Z,994.38
2019-06-15T07:03:21.637Z,994.46
2019-06-15T07:04:20.095Z,994.44
2019-06-15T07:05:20.231Z,994.47
2019-06-15T07:06:22.375Z,994.43
2019-06-15T07:07:18.231Z,994.6
2019-06-15T07:08:26.689Z,994.56
2019-06-15T07:09:32.605Z,994.49
2019-06-15T07:10:31.093Z,994.68
2019-06-15T07:11:31.188Z,994.57
2019-06-15T07:12:35.106Z,994.56
2019-06-15T07:13:35.841Z,994.59
2019-06-15T07:14:35.862Z,994.6
2019-06-15T07:15:39.416Z,994.65
2019-06-15T07:16:46.318Z,994.6
2019-06-15T07:17:45.924Z,994.59
2019-06-15T07:18:45.238Z,994.63
2019-06-15T07:19:44.111Z,994.65
2019-06-15T07:20:48.213Z,994.68
2019-06-15T07:21:46.787Z,994.66
2019-06-15T07:22:46.004Z,994.66
2019-06-15T07:23:44.599Z,994.73
2019-06-15T07:24:45.467Z,994.68
2019-06-15T07:25:51.089Z,994.81
2019-06-15T07:26:55.383Z,994.68
2019-06-15T07:28:07.507Z,994.66
2019-06-15T07:28:08.027Z,994.66
2019-06-15T07:28:08.359Z,994.66
2019-06-15T07:28:54.497Z,994.56
2019-06-15T07:29:54.658Z,994.66
2019-06-15T07:30:56.791Z,994.62
2019-06-15T07:31:55.762Z,994.49
2019-06-15T07:33:05.481Z,994.57
2019-06-15T07:34:01.613Z,994.53
2019-06-15T07:35:02.850Z,994.57
2019-06-15T07:36:01.409Z,994.52
2019-06-15T07:37:05.525Z,994.5
2019-06-15T07:38:04.977Z,994.5
2019-06-15T07:39:06.955Z,994.5
2019-06-15T07:40:09.116Z,994.47
2019-06-15T07:41:07.654Z,994.53
2019-06-15T07:42:07.566Z,994.5
2019-06-15T07:43:06.446Z,994.47
2019-06-15T07:44:11.495Z,994.59
2019-06-15T07:45:12.356Z,994.56
2019-06-15T07:46:19.075Z,994.51
2019-06-15T07:47:24.276Z,994.5
2019-06-15T07:48:25.712Z,994.51
2019-06-15T07:49:26.206Z,994.43
2019-06-15T07:50:25.078Z,994.46
2019-06-15T07:51:25.494Z,994.5
2019-06-15T07:52:25.215Z,994.59
2019-06-15T07:53:24.828Z,994.6
2019-06-15T07:54:26.709Z,994.57
2019-06-15T07:55:27.420Z,994.56
2019-06-15T07:56:29.811Z,994.47
2019-06-15T07:57:31.274Z,994.66
2019-06-15T07:58:30.563Z,994.54
2019-06-15T07:59:29.856Z,994.62
2019-06-15T08:00:30.450Z,994.6
2019-06-15T08:01:32.379Z,994.59
2019-06-15T08:02:28.481Z,994.54
2019-06-15T08:03:29.435Z,994.56
2019-06-15T08:04:28.325Z,994.53
2019-06-15T08:05:30.662Z,994.58
2019-06-15T08:06:29.775Z,994.58
2019-06-15T08:07:33.145Z,994.57
2019-06-15T08:08:32.913Z,994.55
2019-06-15T08:09:32.076Z,994.66
2019-06-15T08:10:31.053Z,994.61
2019-06-15T08:11:48.302Z,994.76
2019-06-15T08:12:46.838Z,994.64
2019-06-15T08:13:46.245Z,994.72
2019-06-15T08:14:45.929Z,994.69
2019-06-15T08:15:51.419Z,994.61
2019-06-15T08:16:51.545Z,994.63
2019-06-15T08:17:53.679Z,994.63
2019-06-15T08:18:57.347Z,994.68
2019-06-15T08:19:58.899Z,994.67
2019-06-15T08:20:59.565Z,994.64
2019-06-15T08:22:00.030Z,994.69
2019-06-15T08:23:02.608Z,994.7
2019-06-15T08:24:05.282Z,994.82
2019-06-15T08:25:09.579Z,994.79
2019-06-15T08:26:09.980Z,994.85
2019-06-15T08:27:10.773Z,994.81
2019-06-15T08:28:09.837Z,994.78
2019-06-15T08:29:10.518Z,994.88
2019-06-15T08:30:14.334Z,994.81
2019-06-15T08:31:14.486Z,994.91
2019-06-15T08:32:18.012Z,994.97
2019-06-15T08:33:17.504Z,994.97
2019-06-15T08:34:22.999Z,995.04
2019-06-15T08:35:22.317Z,995.03
2019-06-15T08:36:22.726Z,995.07
2019-06-15T08:37:29.328Z,995.05
2019-06-15T08:38:31.609Z,995.03
2019-06-15T08:39:30.540Z,995.07
2019-06-15T08:40:30.147Z,995.07
2019-06-15T08:41:33.111Z,995.11
2019-06-15T08:42:37.192Z,995
2019-06-15T08:43:45.599Z,995.01
2019-06-15T08:44:50.137Z,995.01
2019-06-15T08:45:50.320Z,994.94
2019-06-15T08:46:53.511Z,995.05
2019-06-15T08:47:26.895Z,995
2019-06-15T08:48:26.605Z,994.97
2019-06-15T08:49:26.304Z,995.02
2019-06-15T08:50:28.089Z,995.05
2019-06-15T08:51:32.683Z,995.07
2019-06-15T08:52:31.389Z,995.1
2019-06-15T08:53:35.360Z,995.14
2019-06-15T08:54:38.204Z,995.25
2019-06-15T08:55:37.254Z,995.17
2019-06-15T08:56:39.088Z,995.2
2019-06-15T08:57:40.475Z,995.25
2019-06-15T08:58:38.282Z,995.23
2019-06-15T08:59:38.501Z,995.38
2019-06-15T09:00:44.026Z,995.27
2019-06-15T09:01:42.769Z,995.38
2019-06-15T09:02:48.982Z,995.35
2019-06-15T09:03:55.329Z,995.42
2019-06-15T09:04:56.899Z,995.48
2019-06-15T09:05:58.233Z,995.41
2019-06-15T09:06:58.747Z,995.39
2019-06-15T09:07:58.862Z,995.47
2019-06-15T09:09:05.014Z,995.54
2019-06-15T09:10:19.625Z,995.53
2019-06-15T09:11:24.292Z,995.6
2019-06-15T09:12:31.415Z,995.56
2019-06-15T09:13:49.022Z,995.54
2019-06-15T09:14:59.406Z,995.61
2019-06-15T09:15:59.879Z,995.62
2019-06-15T09:16:58.553Z,995.61
2019-06-15T09:17:57.238Z,995.65
2019-06-15T09:18:57.733Z,995.72
2019-06-15T09:20:08.074Z,995.68
2019-06-15T09:21:09.231Z,995.77
2019-06-15T09:22:11.226Z,995.78
2019-06-15T09:23:11.505Z,995.69
2019-06-15T09:24:12.477Z,995.83
2019-06-15T09:25:12.196Z,995.71
2019-06-15T09:26:20.075Z,995.84
2019-06-15T09:27:25.318Z,995.89
2019-06-15T09:28:27.179Z,995.94
2019-06-15T09:29:26.892Z,995.9
2019-06-15T09:30:26.811Z,995.9
2019-06-15T09:31:30.292Z,995.86
2019-06-15T09:32:33.522Z,995.91
2019-06-15T09:33:38.545Z,995.9
2019-06-15T09:34:41.166Z,995.97
2019-06-15T09:35:40.646Z,995.99
2019-06-15T09:36:41.219Z,995.97
2019-06-15T09:37:42.146Z,995.99
2019-06-15T09:38:49.611Z,995.99
2019-06-15T09:39:53.460Z,996.05
2019-06-15T09:40:52.396Z,996.12
2019-06-15T09:41:51.424Z,996.03
2019-06-15T09:42:54.968Z,996.05
2019-06-15T09:44:01.250Z,996.05
2019-06-15T09:45:06.920Z,996.16
2019-06-15T09:46:08.145Z,996.06
2019-06-15T09:47:09.228Z,996.19
2019-06-15T09:48:11.198Z,996.12
2019-06-15T09:49:13.994Z,996.22
2019-06-15T09:50:13.100Z,996.15
2019-06-15T09:51:12.799Z,996.21
2019-06-15T09:52:38.052Z,996.22
2019-06-15T09:53:37.424Z,996.14
2019-06-15T09:54:42.835Z,996.19
2019-06-15T09:55:43.478Z,996.12
2019-06-15T09:56:42.904Z,996.19
2019-06-15T09:57:44.328Z,996.27
2019-06-15T09:58:44.485Z,996.25
2019-06-15T09:59:43.363Z,996.31
2019-06-15T10:00:43.261Z,996.28
2019-06-15T10:01:47.542Z,996.24
2019-06-15T10:02:46.177Z,996.34
2019-06-15T10:03:46.230Z,996.44
2019-06-15T10:04:45.254Z,996.33
2019-06-15T10:05:44.709Z,996.44
2019-06-15T10:06:43.538Z,996.44
2019-06-15T10:07:48.377Z,996.36
2019-06-15T10:08:53.500Z,996.36
2019-06-15T10:09:56.116Z,996.39
2019-06-15T10:10:55.746Z,996.41
2019-06-15T10:11:54.843Z,996.51
2019-06-15T10:12:53.718Z,996.52
2019-06-15T10:13:54.928Z,996.41
2019-06-15T10:14:55.752Z,996.48
2019-06-15T10:16:18.772Z,996.48
2019-06-15T10:17:14.804Z,996.47
2019-06-15T10:18:14.163Z,996.46
2019-06-15T10:19:16.402Z,996.44
2019-06-15T10:20:17.073Z,996.46
2019-06-15T10:21:15.844Z,996.49
2019-06-15T10:22:14.613Z,996.48
2019-06-15T10:23:19.339Z,996.61
2019-06-15T10:24:21.201Z,996.62
2019-06-15T10:25:23.739Z,996.67
2019-06-15T10:26:23.832Z,996.65
2019-06-15T10:27:23.322Z,996.68
2019-06-15T10:28:22.167Z,996.64
2019-06-15T10:29:21.061Z,996.7
2019-06-15T10:30:32.359Z,996.67
2019-06-15T10:31:32.677Z,996.74
2019-06-15T10:32:32.884Z,996.83
2019-06-15T10:33:37.539Z,996.84
2019-06-15T10:34:40.353Z,996.96
2019-06-15T10:35:44.433Z,996.87
2019-06-15T10:36:45.624Z,996.9
2019-06-15T10:37:45.846Z,996.95
2019-06-15T10:38:46.865Z,996.87
2019-06-15T10:39:47.695Z,996.87
2019-06-15T10:40:48.257Z,996.92
2019-06-15T10:41:51.001Z,997.05
2019-06-15T10:42:57.643Z,997.06
2019-06-15T10:44:00.458Z,997.06
2019-06-15T10:45:00.353Z,997.04
2019-06-15T10:46:01.594Z,997.09
2019-06-15T10:47:01.870Z,997.05
2019-06-15T10:48:02.656Z,997.14
2019-06-15T10:49:02.479Z,997.09
2019-06-15T10:50:01.654Z,997.05
2019-06-15T10:51:04.273Z,997.06
2019-06-15T10:52:07.957Z,997.06
2019-06-15T10:53:10.366Z,997.02
2019-06-15T10:54:10.050Z,997.14
2019-06-15T10:55:09.419Z,997.05
2019-06-15T10:56:10.992Z,997.06
2019-06-15T10:57:10.514Z,997.11
2019-06-15T10:58:11.820Z,997.24
2019-06-15T10:59:13.776Z,997.18
2019-06-15T11:00:17.680Z,997.21
2019-06-15T11:01:19.974Z,997.18
2019-06-15T11:02:19.963Z,997.33
2019-06-15T11:03:21.650Z,997.27
2019-06-15T11:04:20.930Z,997.19
2019-06-15T11:05:21.146Z,997.18
2019-06-15T11:06:20.411Z,997.24
2019-06-15T11:07:19.659Z,997.3
2019-06-15T11:08:18.916Z,997.36
2019-06-15T11:09:19.431Z,997.33
2019-06-15T11:10:18.927Z,997.3
2019-06-15T11:11:18.015Z,997.39
2019-06-15T11:12:22.153Z,997.42
2019-06-15T11:13:19.397Z,997.37
2019-06-15T11:14:19.251Z,997.46
2019-06-15T11:15:23.891Z,997.4
2019-06-15T11:16:24.961Z,997.39
2019-06-15T11:17:26.145Z,997.49
2019-06-15T11:18:27.646Z,997.47
2019-06-15T11:19:28.445Z,997.41
2019-06-15T11:20:28.513Z,997.44
2019-06-15T11:21:31.085Z,997.47
2019-06-15T11:22:32.288Z,997.5
2019-06-15T11:23:33.470Z,997.55
2019-06-15T11:26:01.289Z,997.56
2019-06-15T11:26:50.235Z,997.66
2019-06-15T11:27:49.278Z,997.65
2019-06-15T11:28:49.782Z,997.56
2019-06-15T11:29:51.511Z,997.65
2019-06-15T11:30:50.472Z,997.61
2019-06-15T11:31:55.849Z,997.61
2019-06-15T11:32:58.558Z,997.63
2019-06-15T11:34:03.929Z,997.58
2019-06-15T11:35:03.670Z,997.69
2019-06-15T11:36:08.350Z,997.71
2019-06-15T11:37:03.761Z,997.66
2019-06-15T11:38:06.646Z,997.71
2019-06-15T11:39:04.166Z,997.8
2019-06-15T11:40:08.471Z,997.83
2019-06-15T11:41:08.499Z,997.83
2019-06-15T11:42:06.959Z,997.72
2019-06-15T11:43:04.573Z,997.77
2019-06-15T11:44:04.920Z,997.8
2019-06-15T11:45:11.982Z,997.81
2019-06-15T11:46:20.527Z,997.8
2019-06-15T11:47:19.359Z,997.8
2019-06-15T11:48:18.858Z,997.81
2019-06-15T11:49:23.183Z,997.81
2019-06-15T11:50:21.028Z,997.8
2019-06-15T11:51:27.846Z,997.84
2019-06-15T11:52:27.051Z,997.92
2019-06-15T11:53:26.054Z,997.84
2019-06-15T11:54:27.024Z,997.89
2019-06-15T11:55:38.558Z,997.89
2019-06-15T11:55:39.244Z,997.89
2019-06-15T11:55:39.606Z,997.89
2019-06-15T11:56:28.397Z,997.84
2019-06-15T11:57:42.542Z,997.89
2019-06-15T11:58:42.933Z,997.83
2019-06-15T11:59:44.873Z,997.87
2019-06-15T12:00:42.755Z,997.96
2019-06-15T12:01:45.822Z,997.96
2019-06-15T12:02:43.773Z,997.89
2019-06-15T12:03:49.362Z,998.02
2019-06-15T12:04:58.027Z,997.92
2019-06-15T12:04:58.345Z,997.92
2019-06-15T12:04:58.736Z,997.92
2019-06-15T12:05:47.031Z,998.07
2019-06-15T12:06:51.864Z,998.11
2019-06-15T12:07:50.856Z,998.08
2019-06-15T12:08:48.702Z,998.04
2019-06-15T12:09:50.714Z,998.04
2019-06-15T12:10:49.891Z,998.13
2019-06-15T12:11:49.938Z,998.11
2019-06-15T12:12:52.160Z,998.07
2019-06-15T12:13:49.643Z,998.1
2019-06-15T12:14:51.866Z,998.1
2019-06-15T12:15:59.969Z,998.19
2019-06-15T12:16:59.517Z,998.23
2019-06-15T12:17:57.265Z,998.17
2019-06-15T12:18:56.026Z,998.21
2019-06-15T12:19:56.306Z,998.19
2019-06-15T12:20:54.524Z,998.26
2019-06-15T12:22:05.366Z,998.21
2019-06-15T12:23:05.167Z,998.08
2019-06-15T12:24:04.877Z,998.2
2019-06-15T12:25:02.142Z,998.2
2019-06-15T12:26:07.057Z,998.26
2019-06-15T12:27:05.456Z,998.31
2019-06-15T12:28:05.254Z,998.26
2019-06-15T12:29:07.828Z,998.29
2019-06-15T12:30:05.962Z,998.13
2019-06-15T12:31:06.027Z,998.26
2019-06-15T12:32:04.026Z,998.24
2019-06-15T12:33:04.595Z,998.28
2019-06-15T12:34:02.983Z,998.19
2019-06-15T12:35:00.900Z,998.32
2019-06-15T12:36:00.999Z,998.38
2019-06-15T12:36:59.613Z,998.35
2019-06-15T12:38:01.850Z,998.28
2019-06-15T12:39:00.069Z,998.35
2019-06-15T12:40:00.637Z,998.34
2019-06-15T12:40:59.678Z,998.31
2019-06-15T12:42:01.882Z,998.26
2019-06-15T12:43:07.139Z,998.26
2019-06-15T12:44:04.216Z,998.26
2019-06-15T12:45:05.952Z,998.32